sensor_id;sensor_type;location;lat;lon;timestamp;temperature;humidity
76168;DHT22;64927;48.214;16.378;2024-03-25T00:01:35;8.80;57.80
76168;DHT22;64927;48.214;16.378;2024-03-25T00:04:01;8.70;57.80
76168;DHT22;64927;48.214;16.378;2024-03-25T00:06:26;8.80;57.60
76168;DHT22;64927;48.214;16.378;2024-03-25T00:08:52;8.70;57.60
76168;DHT22;64927;48.214;16.378;2024-03-25T00:11:18;8.80;57.80
76168;DHT22;64927;48.214;16.378;2024-03-25T00:13:43;8.70;57.50
76168;DHT22;64927;48.214;16.378;2024-03-25T00:16:11;8.80;57.30
76168;DHT22;64927;48.214;16.378;2024-03-25T00:18:37;8.80;57.40
76168;DHT22;64927;48.214;16.378;2024-03-25T00:21:05;8.70;57.30
76168;DHT22;64927;48.214;16.378;2024-03-25T00:23:31;8.70;57.20
76168;DHT22;64927;48.214;16.378;2024-03-25T00:25:56;8.80;57.30
76168;DHT22;64927;48.214;16.378;2024-03-25T00:28:22;8.80;57.20
76168;DHT22;64927;48.214;16.378;2024-03-25T00:30:47;8.80;57.30
76168;DHT22;64927;48.214;16.378;2024-03-25T00:33:13;8.80;57.50
76168;DHT22;64927;48.214;16.378;2024-03-25T00:35:41;8.80;57.30
76168;DHT22;64927;48.214;16.378;2024-03-25T00:38:07;8.80;57.30
76168;DHT22;64927;48.214;16.378;2024-03-25T00:40:32;8.90;57.20
76168;DHT22;64927;48.214;16.378;2024-03-25T00:42:59;8.90;57.40
76168;DHT22;64927;48.214;16.378;2024-03-25T00:45:25;8.90;57.30
76168;DHT22;64927;48.214;16.378;2024-03-25T00:47:58;8.90;57.60
76168;DHT22;64927;48.214;16.378;2024-03-25T00:50:27;8.80;57.80
76168;DHT22;64927;48.214;16.378;2024-03-25T00:52:53;8.80;57.80
76168;DHT22;64927;48.214;16.378;2024-03-25T00:55:18;8.90;57.90
76168;DHT22;64927;48.214;16.378;2024-03-25T00:57:44;8.90;57.80
76168;DHT22;64927;48.214;16.378;2024-03-25T01:00:11;8.80;58.10
76168;DHT22;64927;48.214;16.378;2024-03-25T01:02:36;8.90;57.80
76168;DHT22;64927;48.214;16.378;2024-03-25T01:05:03;8.90;57.80
76168;DHT22;64927;48.214;16.378;2024-03-25T01:07:30;8.90;57.80
76168;DHT22;64927;48.214;16.378;2024-03-25T01:09:56;8.90;57.80
76168;DHT22;64927;48.214;16.378;2024-03-25T01:12:22;8.90;57.90
76168;DHT22;64927;48.214;16.378;2024-03-25T01:14:47;8.90;58.10
76168;DHT22;64927;48.214;16.378;2024-03-25T01:17:13;8.80;58.40
76168;DHT22;64927;48.214;16.378;2024-03-25T01:19:38;8.80;58.50
76168;DHT22;64927;48.214;16.378;2024-03-25T01:22:06;8.90;58.40
76168;DHT22;64927;48.214;16.378;2024-03-25T01:24:32;8.90;58.60
76168;DHT22;64927;48.214;16.378;2024-03-25T01:26:58;8.90;58.50
76168;DHT22;64927;48.214;16.378;2024-03-25T01:29:23;8.90;58.50
76168;DHT22;64927;48.214;16.378;2024-03-25T01:31:53;8.90;58.30
76168;DHT22;64927;48.214;16.378;2024-03-25T01:34:19;8.90;58.40
76168;DHT22;64927;48.214;16.378;2024-03-25T01:36:45;8.80;58.40
76168;DHT22;64927;48.214;16.378;2024-03-25T01:39:10;8.80;58.80
76168;DHT22;64927;48.214;16.378;2024-03-25T01:41:39;8.80;58.70
76168;DHT22;64927;48.214;16.378;2024-03-25T01:44:07;8.80;58.50
76168;DHT22;64927;48.214;16.378;2024-03-25T01:46:34;8.90;58.20
76168;DHT22;64927;48.214;16.378;2024-03-25T01:48:59;8.80;58.60
76168;DHT22;64927;48.214;16.378;2024-03-25T01:51:25;8.80;58.60
76168;DHT22;64927;48.214;16.378;2024-03-25T01:53:52;8.80;58.50
76168;DHT22;64927;48.214;16.378;2024-03-25T01:56:19;8.90;58.00
76168;DHT22;64927;48.214;16.378;2024-03-25T01:58:47;8.90;58.20
76168;DHT22;64927;48.214;16.378;2024-03-25T02:01:13;8.80;58.30
76168;DHT22;64927;48.214;16.378;2024-03-25T02:03:42;8.80;58.30
76168;DHT22;64927;48.214;16.378;2024-03-25T02:06:12;8.80;58.20
76168;DHT22;64927;48.214;16.378;2024-03-25T02:08:39;8.80;58.40
76168;DHT22;64927;48.214;16.378;2024-03-25T02:11:05;8.70;58.70
76168;DHT22;64927;48.214;16.378;2024-03-25T02:13:37;8.60;58.80
76168;DHT22;64927;48.214;16.378;2024-03-25T02:16:03;8.70;58.90
76168;DHT22;64927;48.214;16.378;2024-03-25T02:18:29;8.70;59.00
76168;DHT22;64927;48.214;16.378;2024-03-25T02:20:56;8.60;59.10
76168;DHT22;64927;48.214;16.378;2024-03-25T02:23:22;8.60;59.30
76168;DHT22;64927;48.214;16.378;2024-03-25T02:25:51;8.50;59.50
76168;DHT22;64927;48.214;16.378;2024-03-25T02:28:17;8.50;59.50
76168;DHT22;64927;48.214;16.378;2024-03-25T02:30:43;8.50;59.60
76168;DHT22;64927;48.214;16.378;2024-03-25T02:33:09;8.50;59.70
76168;DHT22;64927;48.214;16.378;2024-03-25T02:35:35;8.50;59.60
76168;DHT22;64927;48.214;16.378;2024-03-25T02:38:02;8.50;59.70
76168;DHT22;64927;48.214;16.378;2024-03-25T02:40:29;8.50;59.70
76168;DHT22;64927;48.214;16.378;2024-03-25T02:42:55;8.50;60.00
76168;DHT22;64927;48.214;16.378;2024-03-25T02:45:21;8.50;59.90
76168;DHT22;64927;48.214;16.378;2024-03-25T02:47:46;8.40;59.70
76168;DHT22;64927;48.214;16.378;2024-03-25T02:50:12;8.40;60.10
76168;DHT22;64927;48.214;16.378;2024-03-25T02:52:40;8.40;60.10
76168;DHT22;64927;48.214;16.378;2024-03-25T02:55:05;8.40;60.10
76168;DHT22;64927;48.214;16.378;2024-03-25T02:57:31;8.30;60.20
76168;DHT22;64927;48.214;16.378;2024-03-25T02:59:57;8.40;60.30
76168;DHT22;64927;48.214;16.378;2024-03-25T03:02:25;8.30;60.60
76168;DHT22;64927;48.214;16.378;2024-03-25T03:04:50;8.30;60.50
76168;DHT22;64927;48.214;16.378;2024-03-25T03:07:16;8.20;60.70
76168;DHT22;64927;48.214;16.378;2024-03-25T03:09:44;8.10;61.30
76168;DHT22;64927;48.214;16.378;2024-03-25T03:12:09;8.20;61.10
76168;DHT22;64927;48.214;16.378;2024-03-25T03:14:37;8.30;60.90
76168;DHT22;64927;48.214;16.378;2024-03-25T03:17:03;8.30;61.00
76168;DHT22;64927;48.214;16.378;2024-03-25T03:19:33;8.30;61.00
76168;DHT22;64927;48.214;16.378;2024-03-25T03:22:01;8.30;61.20
76168;DHT22;64927;48.214;16.378;2024-03-25T03:24:27;8.30;61.40
76168;DHT22;64927;48.214;16.378;2024-03-25T03:26:53;8.30;61.60
76168;DHT22;64927;48.214;16.378;2024-03-25T03:29:18;8.30;61.60
76168;DHT22;64927;48.214;16.378;2024-03-25T03:31:44;8.40;61.30
76168;DHT22;64927;48.214;16.378;2024-03-25T03:34:10;8.50;61.10
76168;DHT22;64927;48.214;16.378;2024-03-25T03:36:38;8.40;61.10
76168;DHT22;64927;48.214;16.378;2024-03-25T03:39:06;8.40;61.10
76168;DHT22;64927;48.214;16.378;2024-03-25T03:41:36;8.40;61.00
76168;DHT22;64927;48.214;16.378;2024-03-25T03:44:04;8.40;60.90
76168;DHT22;64927;48.214;16.378;2024-03-25T03:46:29;8.40;60.90
76168;DHT22;64927;48.214;16.378;2024-03-25T03:48:55;8.50;60.70
76168;DHT22;64927;48.214;16.378;2024-03-25T03:51:21;8.50;60.40
76168;DHT22;64927;48.214;16.378;2024-03-25T03:53:47;8.40;60.50
76168;DHT22;64927;48.214;16.378;2024-03-25T03:56:12;8.40;60.40
76168;DHT22;64927;48.214;16.378;2024-03-25T03:58:38;8.40;60.30
76168;DHT22;64927;48.214;16.378;2024-03-25T04:01:04;8.40;60.40
76168;DHT22;64927;48.214;16.378;2024-03-25T04:03:30;8.50;60.00
76168;DHT22;64927;48.214;16.378;2024-03-25T04:05:55;8.60;59.90
76168;DHT22;64927;48.214;16.378;2024-03-25T04:08:21;8.60;59.40
76168;DHT22;64927;48.214;16.378;2024-03-25T04:10:49;8.40;59.80
76168;DHT22;64927;48.214;16.378;2024-03-25T04:13:14;8.50;59.70
76168;DHT22;64927;48.214;16.378;2024-03-25T04:15:43;8.50;59.40
76168;DHT22;64927;48.214;16.378;2024-03-25T04:18:08;8.50;59.40
76168;DHT22;64927;48.214;16.378;2024-03-25T04:20:38;8.50;59.50
76168;DHT22;64927;48.214;16.378;2024-03-25T04:23:04;8.60;59.10
76168;DHT22;64927;48.214;16.378;2024-03-25T04:25:32;8.60;58.80
76168;DHT22;64927;48.214;16.378;2024-03-25T04:27:58;8.60;58.70
76168;DHT22;64927;48.214;16.378;2024-03-25T04:30:24;8.60;58.70
76168;DHT22;64927;48.214;16.378;2024-03-25T04:32:53;8.70;58.20
76168;DHT22;64927;48.214;16.378;2024-03-25T04:35:19;8.70;58.10
76168;DHT22;64927;48.214;16.378;2024-03-25T04:37:44;8.70;58.40
76168;DHT22;64927;48.214;16.378;2024-03-25T04:40:10;8.60;58.40
76168;DHT22;64927;48.214;16.378;2024-03-25T04:42:42;8.70;58.50
76168;DHT22;64927;48.214;16.378;2024-03-25T04:45:08;8.80;58.40
76168;DHT22;64927;48.214;16.378;2024-03-25T04:47:33;8.70;58.20
76168;DHT22;64927;48.214;16.378;2024-03-25T04:49:59;8.70;58.50
76168;DHT22;64927;48.214;16.378;2024-03-25T04:52:25;8.70;58.70
76168;DHT22;64927;48.214;16.378;2024-03-25T04:54:51;8.70;58.80
76168;DHT22;64927;48.214;16.378;2024-03-25T04:57:17;8.80;58.70
76168;DHT22;64927;48.214;16.378;2024-03-25T04:59:42;8.80;59.60
76168;DHT22;64927;48.214;16.378;2024-03-25T05:02:08;8.70;58.80
76168;DHT22;64927;48.214;16.378;2024-03-25T05:04:34;8.80;58.90
76168;DHT22;64927;48.214;16.378;2024-03-25T05:06:59;8.80;58.80
76168;DHT22;64927;48.214;16.378;2024-03-25T05:09:27;8.80;58.90
76168;DHT22;64927;48.214;16.378;2024-03-25T05:11:55;8.80;59.00
76168;DHT22;64927;48.214;16.378;2024-03-25T05:14:23;8.80;59.10
76168;DHT22;64927;48.214;16.378;2024-03-25T05:16:48;8.80;58.90
76168;DHT22;64927;48.214;16.378;2024-03-25T05:19:15;9.00;58.90
76168;DHT22;64927;48.214;16.378;2024-03-25T05:21:41;9.00;58.30
76168;DHT22;64927;48.214;16.378;2024-03-25T05:24:09;9.00;58.40
76168;DHT22;64927;48.214;16.378;2024-03-25T05:26:37;9.10;58.00
76168;DHT22;64927;48.214;16.378;2024-03-25T05:29:03;9.00;58.40
76168;DHT22;64927;48.214;16.378;2024-03-25T05:31:28;9.00;58.30
76168;DHT22;64927;48.214;16.378;2024-03-25T05:33:57;9.10;58.20
76168;DHT22;64927;48.214;16.378;2024-03-25T05:36:25;9.00;58.00
76168;DHT22;64927;48.214;16.378;2024-03-25T05:38:50;9.10;57.70
76168;DHT22;64927;48.214;16.378;2024-03-25T05:41:16;9.20;57.60
76168;DHT22;64927;48.214;16.378;2024-03-25T05:43:42;9.20;57.10
76168;DHT22;64927;48.214;16.378;2024-03-25T05:46:07;9.20;57.20
76168;DHT22;64927;48.214;16.378;2024-03-25T05:48:33;9.30;57.20
76168;DHT22;64927;48.214;16.378;2024-03-25T05:51:03;9.40;56.30
76168;DHT22;64927;48.214;16.378;2024-03-25T05:53:30;9.40;56.30
76168;DHT22;64927;48.214;16.378;2024-03-25T05:55:56;9.50;56.60
76168;DHT22;64927;48.214;16.378;2024-03-25T05:58:25;9.50;56.10
76168;DHT22;64927;48.214;16.378;2024-03-25T06:00:51;9.50;55.30
76168;DHT22;64927;48.214;16.378;2024-03-25T06:03:16;9.50;56.00
76168;DHT22;64927;48.214;16.378;2024-03-25T06:05:43;9.50;55.50
76168;DHT22;64927;48.214;16.378;2024-03-25T06:08:09;9.50;55.50
76168;DHT22;64927;48.214;16.378;2024-03-25T06:10:43;9.50;55.80
76168;DHT22;64927;48.214;16.378;2024-03-25T06:13:09;9.60;55.60
76168;DHT22;64927;48.214;16.378;2024-03-25T06:15:35;9.60;55.20
76168;DHT22;64927;48.214;16.378;2024-03-25T06:18:00;9.50;55.20
76168;DHT22;64927;48.214;16.378;2024-03-25T06:20:28;9.60;55.30
76168;DHT22;64927;48.214;16.378;2024-03-25T06:22:56;9.50;55.50
76168;DHT22;64927;48.214;16.378;2024-03-25T06:25:24;9.70;55.30
76168;DHT22;64927;48.214;16.378;2024-03-25T06:27:52;9.70;55.20
76168;DHT22;64927;48.214;16.378;2024-03-25T06:30:21;9.70;55.00
76168;DHT22;64927;48.214;16.378;2024-03-25T06:33:05;9.70;54.90
76168;DHT22;64927;48.214;16.378;2024-03-25T06:35:52;9.80;54.80
76168;DHT22;64927;48.214;16.378;2024-03-25T06:38:18;9.90;54.50
76168;DHT22;64927;48.214;16.378;2024-03-25T06:40:45;9.80;54.80
76168;DHT22;64927;48.214;16.378;2024-03-25T06:43:13;9.90;54.40
76168;DHT22;64927;48.214;16.378;2024-03-25T06:45:43;10.10;53.90
76168;DHT22;64927;48.214;16.378;2024-03-25T06:48:09;10.10;53.90
76168;DHT22;64927;48.214;16.378;2024-03-25T06:50:34;10.20;53.50
76168;DHT22;64927;48.214;16.378;2024-03-25T06:53:04;10.10;53.70
76168;DHT22;64927;48.214;16.378;2024-03-25T06:55:30;10.20;53.10
76168;DHT22;64927;48.214;16.378;2024-03-25T06:57:55;9.90;54.10
76168;DHT22;64927;48.214;16.378;2024-03-25T07:00:21;10.10;54.10
76168;DHT22;64927;48.214;16.378;2024-03-25T07:02:48;10.40;53.20
76168;DHT22;64927;48.214;16.378;2024-03-25T07:05:13;10.60;52.10
76168;DHT22;64927;48.214;16.378;2024-03-25T07:07:39;10.80;51.60
76168;DHT22;64927;48.214;16.378;2024-03-25T07:10:05;10.90;50.70
76168;DHT22;64927;48.214;16.378;2024-03-25T07:12:33;10.90;50.60
76168;DHT22;64927;48.214;16.378;2024-03-25T07:15:04;10.90;50.30
76168;DHT22;64927;48.214;16.378;2024-03-25T07:17:30;11.00;50.70
76168;DHT22;64927;48.214;16.378;2024-03-25T07:19:55;11.00;50.40
76168;DHT22;64927;48.214;16.378;2024-03-25T07:22:21;11.20;49.70
76168;DHT22;64927;48.214;16.378;2024-03-25T07:24:46;11.30;49.20
76168;DHT22;64927;48.214;16.378;2024-03-25T07:27:12;11.50;48.80
76168;DHT22;64927;48.214;16.378;2024-03-25T07:29:38;11.80;47.80
76168;DHT22;64927;48.214;16.378;2024-03-25T07:32:06;12.10;47.50
76168;DHT22;64927;48.214;16.378;2024-03-25T07:34:33;12.40;45.60
76168;DHT22;64927;48.214;16.378;2024-03-25T07:36:59;12.10;46.10
76168;DHT22;64927;48.214;16.378;2024-03-25T07:39:24;12.20;46.20
76168;DHT22;64927;48.214;16.378;2024-03-25T07:41:51;12.10;46.20
76168;DHT22;64927;48.214;16.378;2024-03-25T07:44:16;11.90;46.90
76168;DHT22;64927;48.214;16.378;2024-03-25T07:46:42;12.00;46.90
76168;DHT22;64927;48.214;16.378;2024-03-25T07:49:08;12.00;46.80
76168;DHT22;64927;48.214;16.378;2024-03-25T07:51:33;12.00;46.10
76168;DHT22;64927;48.214;16.378;2024-03-25T07:54:01;12.00;46.40
76168;DHT22;64927;48.214;16.378;2024-03-25T07:56:26;11.90;46.20
76168;DHT22;64927;48.214;16.378;2024-03-25T07:58:54;11.80;46.40
76168;DHT22;64927;48.214;16.378;2024-03-25T08:01:20;11.70;46.70
76168;DHT22;64927;48.214;16.378;2024-03-25T08:03:45;11.80;46.80
76168;DHT22;64927;48.214;16.378;2024-03-25T08:06:11;11.90;47.20
76168;DHT22;64927;48.214;16.378;2024-03-25T08:08:36;12.00;46.60
76168;DHT22;64927;48.214;16.378;2024-03-25T08:11:04;12.00;46.20
76168;DHT22;64927;48.214;16.378;2024-03-25T08:13:30;11.90;46.70
76168;DHT22;64927;48.214;16.378;2024-03-25T08:15:56;11.80;46.60
76168;DHT22;64927;48.214;16.378;2024-03-25T08:18:21;11.90;46.50
76168;DHT22;64927;48.214;16.378;2024-03-25T08:20:50;12.10;45.70
76168;DHT22;64927;48.214;16.378;2024-03-25T08:23:15;12.10;45.20
76168;DHT22;64927;48.214;16.378;2024-03-25T08:25:41;12.20;44.90
76168;DHT22;64927;48.214;16.378;2024-03-25T08:28:08;12.50;44.40
76168;DHT22;64927;48.214;16.378;2024-03-25T08:30:34;12.80;44.10
76168;DHT22;64927;48.214;16.378;2024-03-25T08:33:02;13.00;43.20
76168;DHT22;64927;48.214;16.378;2024-03-25T08:35:31;13.10;42.00
76168;DHT22;64927;48.214;16.378;2024-03-25T08:37:59;13.30;42.00
76168;DHT22;64927;48.214;16.378;2024-03-25T08:40:24;13.40;41.10
76168;DHT22;64927;48.214;16.378;2024-03-25T08:42:52;13.40;40.90
76168;DHT22;64927;48.214;16.378;2024-03-25T08:45:20;13.50;40.60
76168;DHT22;64927;48.214;16.378;2024-03-25T08:47:46;13.40;40.90
76168;DHT22;64927;48.214;16.378;2024-03-25T08:50:11;13.30;41.20
76168;DHT22;64927;48.214;16.378;2024-03-25T08:52:41;13.40;41.40
76168;DHT22;64927;48.214;16.378;2024-03-25T08:55:07;13.60;40.80
76168;DHT22;64927;48.214;16.378;2024-03-25T08:57:33;13.50;40.30
76168;DHT22;64927;48.214;16.378;2024-03-25T08:59:59;13.50;40.90
76168;DHT22;64927;48.214;16.378;2024-03-25T09:02:24;13.60;40.60
76168;DHT22;64927;48.214;16.378;2024-03-25T09:04:50;13.80;40.50
76168;DHT22;64927;48.214;16.378;2024-03-25T09:07:16;13.90;41.00
76168;DHT22;64927;48.214;16.378;2024-03-25T09:09:41;13.90;40.40
76168;DHT22;64927;48.214;16.378;2024-03-25T09:12:27;13.70;40.30
76168;DHT22;64927;48.214;16.378;2024-03-25T09:14:53;13.60;40.30
76168;DHT22;64927;48.214;16.378;2024-03-25T09:17:19;13.70;40.40
76168;DHT22;64927;48.214;16.378;2024-03-25T09:19:48;13.70;39.80
76168;DHT22;64927;48.214;16.378;2024-03-25T09:22:14;13.80;40.30
76168;DHT22;64927;48.214;16.378;2024-03-25T09:24:39;13.70;40.20
76168;DHT22;64927;48.214;16.378;2024-03-25T09:27:05;13.70;40.60
76168;DHT22;64927;48.214;16.378;2024-03-25T09:29:31;13.70;40.20
76168;DHT22;64927;48.214;16.378;2024-03-25T09:31:57;13.30;40.80
76168;DHT22;64927;48.214;16.378;2024-03-25T09:34:22;13.40;40.70
76168;DHT22;64927;48.214;16.378;2024-03-25T09:36:48;13.50;40.00
76168;DHT22;64927;48.214;16.378;2024-03-25T09:39:13;13.90;39.50
76168;DHT22;64927;48.214;16.378;2024-03-25T09:41:42;14.00;38.70
76168;DHT22;64927;48.214;16.378;2024-03-25T09:44:08;14.00;39.00
76168;DHT22;64927;48.214;16.378;2024-03-25T09:46:36;14.00;38.60
76168;DHT22;64927;48.214;16.378;2024-03-25T09:49:02;14.00;38.50
76168;DHT22;64927;48.214;16.378;2024-03-25T09:51:31;13.90;38.90
76168;DHT22;64927;48.214;16.378;2024-03-25T09:53:59;13.70;39.10
76168;DHT22;64927;48.214;16.378;2024-03-25T09:56:25;13.70;39.10
76168;DHT22;64927;48.214;16.378;2024-03-25T09:58:54;13.60;39.20
76168;DHT22;64927;48.214;16.378;2024-03-25T10:01:20;13.60;38.70
76168;DHT22;64927;48.214;16.378;2024-03-25T10:03:45;13.50;39.10
76168;DHT22;64927;48.214;16.378;2024-03-25T10:06:11;13.50;39.50
76168;DHT22;64927;48.214;16.378;2024-03-25T10:08:38;13.50;39.60
76168;DHT22;64927;48.214;16.378;2024-03-25T10:11:04;13.50;39.80
76168;DHT22;64927;48.214;16.378;2024-03-25T10:13:29;13.40;39.30
76168;DHT22;64927;48.214;16.378;2024-03-25T10:15:55;13.30;39.80
76168;DHT22;64927;48.214;16.378;2024-03-25T10:18:28;13.50;39.10
76168;DHT22;64927;48.214;16.378;2024-03-25T10:20:54;13.70;38.00
76168;DHT22;64927;48.214;16.378;2024-03-25T10:23:27;13.90;36.60
76168;DHT22;64927;48.214;16.378;2024-03-25T10:25:56;13.70;37.00
76168;DHT22;64927;48.214;16.378;2024-03-25T10:28:22;13.80;36.20
76168;DHT22;64927;48.214;16.378;2024-03-25T10:30:50;13.90;36.10
76168;DHT22;64927;48.214;16.378;2024-03-25T10:33:15;14.00;36.20
76168;DHT22;64927;48.214;16.378;2024-03-25T10:35:45;14.00;35.90
76168;DHT22;64927;48.214;16.378;2024-03-25T10:38:14;14.10;35.70
76168;DHT22;64927;48.214;16.378;2024-03-25T10:40:45;14.10;36.30
76168;DHT22;64927;48.214;16.378;2024-03-25T10:43:11;14.10;36.40
76168;DHT22;64927;48.214;16.378;2024-03-25T10:45:42;14.10;36.70
76168;DHT22;64927;48.214;16.378;2024-03-25T10:48:28;14.10;36.90
76168;DHT22;64927;48.214;16.378;2024-03-25T10:51:00;14.20;36.80
76168;DHT22;64927;48.214;16.378;2024-03-25T10:53:27;14.20;36.90
76168;DHT22;64927;48.214;16.378;2024-03-25T10:55:55;14.00;36.30
76168;DHT22;64927;48.214;16.378;2024-03-25T10:58:22;13.90;36.50
76168;DHT22;64927;48.214;16.378;2024-03-25T11:00:53;13.90;36.40
76168;DHT22;64927;48.214;16.378;2024-03-25T11:03:22;14.00;37.20
76168;DHT22;64927;48.214;16.378;2024-03-25T11:05:48;14.10;36.00
76168;DHT22;64927;48.214;16.378;2024-03-25T11:08:16;14.10;35.80
76168;DHT22;64927;48.214;16.378;2024-03-25T11:10:43;14.30;35.90
76168;DHT22;64927;48.214;16.378;2024-03-25T11:13:17;14.40;34.90
76168;DHT22;64927;48.214;16.378;2024-03-25T11:15:45;14.50;34.90
76168;DHT22;64927;48.214;16.378;2024-03-25T11:18:15;14.30;35.10
76168;DHT22;64927;48.214;16.378;2024-03-25T11:20:41;14.40;35.40
76168;DHT22;64927;48.214;16.378;2024-03-25T11:23:11;14.60;35.80
76168;DHT22;64927;48.214;16.378;2024-03-25T11:25:37;14.70;35.70
76168;DHT22;64927;48.214;16.378;2024-03-25T11:28:11;14.70;36.10
76168;DHT22;64927;48.214;16.378;2024-03-25T11:30:37;14.80;36.90
76168;DHT22;64927;48.214;16.378;2024-03-25T11:33:04;14.70;36.30
76168;DHT22;64927;48.214;16.378;2024-03-25T11:35:30;14.70;36.30
76168;DHT22;64927;48.214;16.378;2024-03-25T11:37:56;14.80;35.60
76168;DHT22;64927;48.214;16.378;2024-03-25T11:40:21;14.80;34.70
76168;DHT22;64927;48.214;16.378;2024-03-25T11:42:50;14.90;34.20
76168;DHT22;64927;48.214;16.378;2024-03-25T11:45:17;14.90;33.60
76168;DHT22;64927;48.214;16.378;2024-03-25T11:47:43;14.80;33.90
76168;DHT22;64927;48.214;16.378;2024-03-25T11:50:14;14.90;33.60
76168;DHT22;64927;48.214;16.378;2024-03-25T11:52:43;14.80;34.10
76168;DHT22;64927;48.214;16.378;2024-03-25T11:55:09;14.70;33.20
76168;DHT22;64927;48.214;16.378;2024-03-25T11:57:36;14.70;33.20
76168;DHT22;64927;48.214;16.378;2024-03-25T12:00:02;14.60;33.80
76168;DHT22;64927;48.214;16.378;2024-03-25T12:02:32;14.50;34.30
76168;DHT22;64927;48.214;16.378;2024-03-25T12:04:58;14.70;34.40
76168;DHT22;64927;48.214;16.378;2024-03-25T12:07:23;14.90;34.40
76168;DHT22;64927;48.214;16.378;2024-03-25T12:09:52;14.80;34.90
76168;DHT22;64927;48.214;16.378;2024-03-25T12:12:36;14.70;34.00
76168;DHT22;64927;48.214;16.378;2024-03-25T12:15:05;14.60;33.70
76168;DHT22;64927;48.214;16.378;2024-03-25T12:17:33;14.40;33.90
76168;DHT22;64927;48.214;16.378;2024-03-25T12:20:06;14.30;34.70
76168;DHT22;64927;48.214;16.378;2024-03-25T12:22:39;14.30;34.80
76168;DHT22;64927;48.214;16.378;2024-03-25T12:25:07;14.30;35.50
76168;DHT22;64927;48.214;16.378;2024-03-25T12:27:36;14.40;35.30
76168;DHT22;64927;48.214;16.378;2024-03-25T12:30:05;14.40;35.80
76168;DHT22;64927;48.214;16.378;2024-03-25T12:32:39;14.60;34.60
76168;DHT22;64927;48.214;16.378;2024-03-25T12:37:36;14.30;34.90
76168;DHT22;64927;48.214;16.378;2024-03-25T12:40:03;14.20;35.10
76168;DHT22;64927;48.214;16.378;2024-03-25T12:42:30;14.30;34.10
76168;DHT22;64927;48.214;16.378;2024-03-25T12:44:56;14.20;33.70
76168;DHT22;64927;48.214;16.378;2024-03-25T12:47:22;14.20;32.60
76168;DHT22;64927;48.214;16.378;2024-03-25T12:49:48;14.10;32.70
76168;DHT22;64927;48.214;16.378;2024-03-25T12:52:13;14.20;33.70
76168;DHT22;64927;48.214;16.378;2024-03-25T12:54:41;14.30;33.70
76168;DHT22;64927;48.214;16.378;2024-03-25T12:57:07;14.40;34.40
76168;DHT22;64927;48.214;16.378;2024-03-25T12:59:36;14.30;35.60
76168;DHT22;64927;48.214;16.378;2024-03-25T13:02:08;14.20;35.70
76168;DHT22;64927;48.214;16.378;2024-03-25T13:04:34;14.10;35.70
76168;DHT22;64927;48.214;16.378;2024-03-25T13:07:03;14.10;35.70
76168;DHT22;64927;48.214;16.378;2024-03-25T13:09:28;14.20;35.60
76168;DHT22;64927;48.214;16.378;2024-03-25T13:11:58;14.20;35.30
76168;DHT22;64927;48.214;16.378;2024-03-25T13:14:25;14.00;35.90
76168;DHT22;64927;48.214;16.378;2024-03-25T13:16:51;14.00;36.50
76168;DHT22;64927;48.214;16.378;2024-03-25T13:19:17;14.10;36.90
76168;DHT22;64927;48.214;16.378;2024-03-25T13:21:45;14.00;36.00
76168;DHT22;64927;48.214;16.378;2024-03-25T13:24:10;13.90;36.60
76168;DHT22;64927;48.214;16.378;2024-03-25T13:26:36;14.20;36.60
76168;DHT22;64927;48.214;16.378;2024-03-25T13:29:02;14.30;35.90
76168;DHT22;64927;48.214;16.378;2024-03-25T13:31:27;14.50;35.30
76168;DHT22;64927;48.214;16.378;2024-03-25T13:33:56;14.50;35.20
76168;DHT22;64927;48.214;16.378;2024-03-25T13:36:24;14.70;34.40
76168;DHT22;64927;48.214;16.378;2024-03-25T13:38:52;14.90;34.30
76168;DHT22;64927;48.214;16.378;2024-03-25T13:41:34;14.90;33.80
76168;DHT22;64927;48.214;16.378;2024-03-25T13:43:59;14.80;34.10
76168;DHT22;64927;48.214;16.378;2024-03-25T13:46:25;14.80;34.90
76168;DHT22;64927;48.214;16.378;2024-03-25T13:48:51;14.80;34.00
76168;DHT22;64927;48.214;16.378;2024-03-25T13:51:22;14.90;34.00
76168;DHT22;64927;48.214;16.378;2024-03-25T13:53:47;14.80;33.60
76168;DHT22;64927;48.214;16.378;2024-03-25T13:56:16;14.70;34.20
76168;DHT22;64927;48.214;16.378;2024-03-25T13:58:41;14.80;34.40
76168;DHT22;64927;48.214;16.378;2024-03-25T14:01:07;14.80;34.20
76168;DHT22;64927;48.214;16.378;2024-03-25T14:03:34;14.90;34.40
76168;DHT22;64927;48.214;16.378;2024-03-25T14:06:00;15.00;33.60
76168;DHT22;64927;48.214;16.378;2024-03-25T14:08:28;14.90;34.10
76168;DHT22;64927;48.214;16.378;2024-03-25T14:11:02;14.80;33.80
76168;DHT22;64927;48.214;16.378;2024-03-25T14:13:29;14.80;32.90
76168;DHT22;64927;48.214;16.378;2024-03-25T14:15:57;14.80;32.70
76168;DHT22;64927;48.214;16.378;2024-03-25T14:18:22;14.60;32.80
76168;DHT22;64927;48.214;16.378;2024-03-25T14:20:53;14.60;33.20
76168;DHT22;64927;48.214;16.378;2024-03-25T14:23:22;14.80;33.30
76168;DHT22;64927;48.214;16.378;2024-03-25T14:25:50;15.00;32.40
76168;DHT22;64927;48.214;16.378;2024-03-25T14:28:16;15.00;32.30
76168;DHT22;64927;48.214;16.378;2024-03-25T14:30:42;14.90;33.00
76168;DHT22;64927;48.214;16.378;2024-03-25T14:33:08;14.90;33.00
76168;DHT22;64927;48.214;16.378;2024-03-25T14:35:34;15.00;32.80
76168;DHT22;64927;48.214;16.378;2024-03-25T14:38:00;15.00;32.60
76168;DHT22;64927;48.214;16.378;2024-03-25T14:40:26;15.00;32.30
76168;DHT22;64927;48.214;16.378;2024-03-25T14:42:52;14.90;32.10
76168;DHT22;64927;48.214;16.378;2024-03-25T14:45:18;15.00;32.30
76168;DHT22;64927;48.214;16.378;2024-03-25T14:47:43;15.00;32.00
76168;DHT22;64927;48.214;16.378;2024-03-25T14:50:11;14.90;32.20
76168;DHT22;64927;48.214;16.378;2024-03-25T14:52:37;14.80;32.80
76168;DHT22;64927;48.214;16.378;2024-03-25T14:55:06;14.70;33.40
76168;DHT22;64927;48.214;16.378;2024-03-25T14:57:36;14.60;34.00
76168;DHT22;64927;48.214;16.378;2024-03-25T15:00:07;14.50;33.80
76168;DHT22;64927;48.214;16.378;2024-03-25T15:02:34;14.50;33.90
76168;DHT22;64927;48.214;16.378;2024-03-25T15:04:59;14.40;34.00
76168;DHT22;64927;48.214;16.378;2024-03-25T15:07:26;14.40;33.80
76168;DHT22;64927;48.214;16.378;2024-03-25T15:09:55;14.40;33.60
76168;DHT22;64927;48.214;16.378;2024-03-25T15:12:20;14.10;33.80
76168;DHT22;64927;48.214;16.378;2024-03-25T15:14:49;14.20;34.30
76168;DHT22;64927;48.214;16.378;2024-03-25T15:17:15;14.20;34.10
76168;DHT22;64927;48.214;16.378;2024-03-25T15:19:41;14.20;34.00
76168;DHT22;64927;48.214;16.378;2024-03-25T15:22:06;14.30;33.50
76168;DHT22;64927;48.214;16.378;2024-03-25T15:24:32;14.20;34.20